sensor_id;sensor_type;location;lat;lon;timestamp;P1;durP1;ratioP1;P2;durP2;ratioP2
4676;SDS011;2352;48.180;11.478;2023-05-10T00:01:59;1.80;;;0.80;;
4676;SDS011;2352;48.180;11.478;2023-05-10T00:05:02;2.03;;;0.60;;
4676;SDS011;2352;48.180;11.478;2023-05-10T00:08:06;0.50;;;0.50;;
4676;SDS011;2352;48.180;11.478;2023-05-10T00:11:09;0.70;;;0.57;;
4676;SDS011;2352;48.180;11.478;2023-05-10T00:14:13;0.60;;;0.60;;
4676;SDS011;2352;48.180;11.478;2023-05-10T00:17:16;0.60;;;0.60;;
4676;SDS011;2352;48.180;11.478;2023-05-10T00:20:19;0.70;;;0.70;;
4676;SDS011;2352;48.180;11.478;2023-05-10T00:23:22;0.93;;;0.57;;
4676;SDS011;2352;48.180;11.478;2023-05-10T00:26:25;0.77;;;0.77;;
4676;SDS011;2352;48.180;11.478;2023-05-10T00:29:30;0.50;;;0.50;;
4676;SDS011;2352;48.180;11.478;2023-05-10T00:32:35;1.43;;;0.60;;
4676;SDS011;2352;48.180;11.478;2023-05-10T00:35:38;0.50;;;0.50;;
4676;SDS011;2352;48.180;11.478;2023-05-10T00:38:41;0.50;;;0.50;;
4676;SDS011;2352;48.180;11.478;2023-05-10T00:41:44;0.50;;;0.50;;
4676;SDS011;2352;48.180;11.478;2023-05-10T00:44:49;1.50;;;0.57;;
4676;SDS011;2352;48.180;11.478;2023-05-10T00:47:52;0.60;;;0.60;;
4676;SDS011;2352;48.180;11.478;2023-05-10T00:50:57;0.50;;;0.50;;
4676;SDS011;2352;48.180;11.478;2023-05-10T00:54:00;0.30;;;0.30;;
4676;SDS011;2352;48.180;11.478;2023-05-10T00:57:03;0.40;;;0.40;;
4676;SDS011;2352;48.180;11.478;2023-05-10T01:00:09;0.30;;;0.30;;
4676;SDS011;2352;48.180;11.478;2023-05-10T01:03:13;0.40;;;0.40;;
4676;SDS011;2352;48.180;11.478;2023-05-10T01:06:16;0.20;;;0.20;;
4676;SDS011;2352;48.180;11.478;2023-05-10T01:09:19;0.40;;;0.40;;
4676;SDS011;2352;48.180;11.478;2023-05-10T01:12:23;0.30;;;0.30;;
4676;SDS011;2352;48.180;11.478;2023-05-10T01:15:28;0.50;;;0.50;;
4676;SDS011;2352;48.180;11.478;2023-05-10T01:18:32;0.37;;;0.37;;
4676;SDS011;2352;48.180;11.478;2023-05-10T01:21:38;0.33;;;0.33;;
4676;SDS011;2352;48.180;11.478;2023-05-10T01:24:56;1.10;;;0.33;;
4676;SDS011;2352;48.180;11.478;2023-05-10T01:28:16;1.93;;;0.47;;
4676;SDS011;2352;48.180;11.478;2023-05-10T01:31:25;1.23;;;0.50;;
4676;SDS011;2352;48.180;11.478;2023-05-10T01:34:35;0.63;;;0.50;;
4676;SDS011;2352;48.180;11.478;2023-05-10T01:37:42;0.37;;;0.30;;
4676;SDS011;2352;48.180;11.478;2023-05-10T01:40:52;0.20;;;0.20;;
4676;SDS011;2352;48.180;11.478;2023-05-10T01:44:01;1.80;;;1.00;;
4676;SDS011;2352;48.180;11.478;2023-05-10T01:47:07;0.63;;;0.63;;
4676;SDS011;2352;48.180;11.478;2023-05-10T01:50:17;0.47;;;0.47;;
4676;SDS011;2352;48.180;11.478;2023-05-10T01:53:21;0.40;;;0.40;;
4676;SDS011;2352;48.180;11.478;2023-05-10T01:56:25;0.97;;;0.30;;
4676;SDS011;2352;48.180;11.478;2023-05-10T01:59:29;0.30;;;0.30;;
4676;SDS011;2352;48.180;11.478;2023-05-10T02:02:35;0.47;;;0.30;;
4676;SDS011;2352;48.180;11.478;2023-05-10T02:05:41;0.93;;;0.40;;
4676;SDS011;2352;48.180;11.478;2023-05-10T02:08:46;0.27;;;0.27;;
4676;SDS011;2352;48.180;11.478;2023-05-10T02:11:51;0.37;;;0.37;;
4676;SDS011;2352;48.180;11.478;2023-05-10T02:14:55;0.30;;;0.30;;
4676;SDS011;2352;48.180;11.478;2023-05-10T02:17:59;0.30;;;0.30;;
4676;SDS011;2352;48.180;11.478;2023-05-10T02:21:05;0.43;;;0.30;;
4676;SDS011;2352;48.180;11.478;2023-05-10T02:24:08;0.30;;;0.30;;
4676;SDS011;2352;48.180;11.478;2023-05-10T02:27:13;0.67;;;0.40;;
4676;SDS011;2352;48.180;11.478;2023-05-10T02:30:17;1.50;;;0.20;;
4676;SDS011;2352;48.180;11.478;2023-05-10T02:33:21;0.50;;;0.37;;
4676;SDS011;2352;48.180;11.478;2023-05-10T02:36:26;0.30;;;0.30;;
4676;SDS011;2352;48.180;11.478;2023-05-10T02:39:30;1.07;;;0.37;;
4676;SDS011;2352;48.180;11.478;2023-05-10T02:42:35;0.30;;;0.30;;
4676;SDS011;2352;48.180;11.478;2023-05-10T02:45:40;0.97;;;0.30;;
4676;SDS011;2352;48.180;11.478;2023-05-10T02:48:43;0.27;;;0.27;;
4676;SDS011;2352;48.180;11.478;2023-05-10T02:51:49;0.30;;;0.30;;
4676;SDS011;2352;48.180;11.478;2023-05-10T02:54:54;0.30;;;0.20;;
4676;SDS011;2352;48.180;11.478;2023-05-10T02:58:01;0.30;;;0.30;;
4676;SDS011;2352;48.180;11.478;2023-05-10T03:01:04;1.20;;;0.40;;
4676;SDS011;2352;48.180;11.478;2023-05-10T03:04:08;0.40;;;0.30;;
4676;SDS011;2352;48.180;11.478;2023-05-10T03:07:13;0.77;;;0.77;;
4676;SDS011;2352;48.180;11.478;2023-05-10T03:10:16;0.70;;;0.20;;
4676;SDS011;2352;48.180;11.478;2023-05-10T03:13:29;0.37;;;0.37;;
4676;SDS011;2352;48.180;11.478;2023-05-10T03:16:39;1.60;;;0.60;;
4676;SDS011;2352;48.180;11.478;2023-05-10T03:19:50;0.30;;;0.30;;
4676;SDS011;2352;48.180;11.478;2023-05-10T03:22:59;0.40;;;0.40;;
4676;SDS011;2352;48.180;11.478;2023-05-10T03:26:06;0.30;;;0.30;;
4676;SDS011;2352;48.180;11.478;2023-05-10T03:29:10;0.20;;;0.20;;
4676;SDS011;2352;48.180;11.478;2023-05-10T03:32:15;0.30;;;0.30;;
4676;SDS011;2352;48.180;11.478;2023-05-10T03:35:18;0.60;;;0.60;;
4676;SDS011;2352;48.180;11.478;2023-05-10T03:38:22;0.37;;;0.37;;
4676;SDS011;2352;48.180;11.478;2023-05-10T03:41:25;0.33;;;0.10;;
4676;SDS011;2352;48.180;11.478;2023-05-10T03:44:28;0.20;;;0.20;;
4676;SDS011;2352;48.180;11.478;2023-05-10T03:47:32;0.40;;;0.30;;
4676;SDS011;2352;48.180;11.478;2023-05-10T03:50:35;0.27;;;0.27;;
4676;SDS011;2352;48.180;11.478;2023-05-10T03:53:39;0.20;;;0.20;;
4676;SDS011;2352;48.180;11.478;2023-05-10T03:56:42;0.40;;;0.40;;
4676;SDS011;2352;48.180;11.478;2023-05-10T03:59:44;0.23;;;0.20;;
4676;SDS011;2352;48.180;11.478;2023-05-10T04:02:47;0.20;;;0.20;;
4676;SDS011;2352;48.180;11.478;2023-05-10T04:05:57;1.10;;;0.20;;
4676;SDS011;2352;48.180;11.478;2023-05-10T04:09:02;0.20;;;0.20;;
4676;SDS011;2352;48.180;11.478;2023-05-10T04:12:06;0.13;;;0.13;;
4676;SDS011;2352;48.180;11.478;2023-05-10T04:15:11;4.27;;;0.57;;
4676;SDS011;2352;48.180;11.478;2023-05-10T04:18:14;0.10;;;0.10;;
4676;SDS011;2352;48.180;11.478;2023-05-10T04:21:18;0.30;;;0.20;;
4676;SDS011;2352;48.180;11.478;2023-05-10T04:24:22;0.27;;;0.27;;
4676;SDS011;2352;48.180;11.478;2023-05-10T04:27:25;0.20;;;0.20;;
4676;SDS011;2352;48.180;11.478;2023-05-10T04:30:28;0.30;;;0.30;;
4676;SDS011;2352;48.180;11.478;2023-05-10T04:33:31;0.20;;;0.20;;
4676;SDS011;2352;48.180;11.478;2023-05-10T04:36:35;0.20;;;0.20;;
4676;SDS011;2352;48.180;11.478;2023-05-10T04:39:39;0.40;;;0.40;;
4676;SDS011;2352;48.180;11.478;2023-05-10T04:42:43;0.60;;;0.30;;
4676;SDS011;2352;48.180;11.478;2023-05-10T04:45:46;0.20;;;0.20;;
4676;SDS011;2352;48.180;11.478;2023-05-10T04:48:49;3.97;;;0.40;;
4676;SDS011;2352;48.180;11.478;2023-05-10T04:51:52;0.20;;;0.20;;
4676;SDS011;2352;48.180;11.478;2023-05-10T04:54:56;0.33;;;0.30;;
4676;SDS011;2352;48.180;11.478;2023-05-10T04:57:59;0.43;;;0.30;;
4676;SDS011;2352;48.180;11.478;2023-05-10T05:01:05;0.60;;;0.30;;
4676;SDS011;2352;48.180;11.478;2023-05-10T05:04:09;0.60;;;0.27;;
4676;SDS011;2352;48.180;11.478;2023-05-10T05:07:12;0.27;;;0.27;;
4676;SDS011;2352;48.180;11.478;2023-05-10T05:10:17;0.30;;;0.30;;
4676;SDS011;2352;48.180;11.478;2023-05-10T05:13:20;0.20;;;0.20;;
4676;SDS011;2352;48.180;11.478;2023-05-10T05:16:24;0.83;;;0.40;;
4676;SDS011;2352;48.180;11.478;2023-05-10T05:19:27;0.40;;;0.40;;
4676;SDS011;2352;48.180;11.478;2023-05-10T05:22:33;0.23;;;0.23;;
4676;SDS011;2352;48.180;11.478;2023-05-10T05:25:37;0.37;;;0.30;;
4676;SDS011;2352;48.180;11.478;2023-05-10T05:28:40;0.67;;;0.67;;
4676;SDS011;2352;48.180;11.478;2023-05-10T05:31:43;3.50;;;0.37;;
4676;SDS011;2352;48.180;11.478;2023-05-10T05:34:46;1.60;;;0.67;;
4676;SDS011;2352;48.180;11.478;2023-05-10T05:37:49;0.20;;;0.20;;
4676;SDS011;2352;48.180;11.478;2023-05-10T05:40:54;0.30;;;0.30;;
4676;SDS011;2352;48.180;11.478;2023-05-10T05:43:56;0.93;;;0.47;;
4676;SDS011;2352;48.180;11.478;2023-05-10T05:46:59;1.07;;;0.60;;
4676;SDS011;2352;48.180;11.478;2023-05-10T05:50:02;5.20;;;0.70;;
4676;SDS011;2352;48.180;11.478;2023-05-10T05:53:06;0.97;;;0.57;;
4676;SDS011;2352;48.180;11.478;2023-05-10T05:56:10;0.57;;;0.30;;
4676;SDS011;2352;48.180;11.478;2023-05-10T05:59:13;1.73;;;0.67;;
4676;SDS011;2352;48.180;11.478;2023-05-10T06:02:16;1.67;;;0.50;;
4676;SDS011;2352;48.180;11.478;2023-05-10T06:05:19;0.63;;;0.40;;
4676;SDS011;2352;48.180;11.478;2023-05-10T06:08:22;1.83;;;0.93;;
4676;SDS011;2352;48.180;11.478;2023-05-10T06:11:26;0.60;;;0.40;;
4676;SDS011;2352;48.180;11.478;2023-05-10T06:14:29;1.00;;;0.60;;
4676;SDS011;2352;48.180;11.478;2023-05-10T06:17:32;1.60;;;0.60;;
4676;SDS011;2352;48.180;11.478;2023-05-10T06:20:35;0.50;;;0.50;;
4676;SDS011;2352;48.180;11.478;2023-05-10T06:23:38;0.53;;;0.53;;
4676;SDS011;2352;48.180;11.478;2023-05-10T06:26:43;1.13;;;0.80;;
4676;SDS011;2352;48.180;11.478;2023-05-10T06:29:46;0.60;;;0.53;;
4676;SDS011;2352;48.180;11.478;2023-05-10T06:32:52;0.67;;;0.60;;
4676;SDS011;2352;48.180;11.478;2023-05-10T06:35:56;2.60;;;0.50;;
4676;SDS011;2352;48.180;11.478;2023-05-10T06:38:59;1.90;;;0.40;;
4676;SDS011;2352;48.180;11.478;2023-05-10T06:42:04;1.20;;;0.60;;
4676;SDS011;2352;48.180;11.478;2023-05-10T06:45:07;0.43;;;0.43;;
4676;SDS011;2352;48.180;11.478;2023-05-10T06:48:11;1.50;;;0.60;;
4676;SDS011;2352;48.180;11.478;2023-05-10T06:51:14;0.60;;;0.50;;
4676;SDS011;2352;48.180;11.478;2023-05-10T06:54:17;0.60;;;0.60;;
4676;SDS011;2352;48.180;11.478;2023-05-10T06:57:21;0.53;;;0.53;;
4676;SDS011;2352;48.180;11.478;2023-05-10T07:00:30;0.57;;;0.57;;
4676;SDS011;2352;48.180;11.478;2023-05-10T07:03:33;0.97;;;0.87;;
4676;SDS011;2352;48.180;11.478;2023-05-10T07:06:36;1.67;;;0.87;;
4676;SDS011;2352;48.180;11.478;2023-05-10T07:09:39;0.67;;;0.50;;
4676;SDS011;2352;48.180;11.478;2023-05-10T07:12:43;0.70;;;0.63;;
4676;SDS011;2352;48.180;11.478;2023-05-10T07:15:46;0.70;;;0.60;;
4676;SDS011;2352;48.180;11.478;2023-05-10T07:18:49;1.00;;;1.00;;
4676;SDS011;2352;48.180;11.478;2023-05-10T07:21:54;0.40;;;0.40;;
4676;SDS011;2352;48.180;11.478;2023-05-10T07:24:57;0.50;;;0.50;;
4676;SDS011;2352;48.180;11.478;2023-05-10T07:28:01;1.33;;;0.60;;
4676;SDS011;2352;48.180;11.478;2023-05-10T07:31:04;0.67;;;0.60;;
4676;SDS011;2352;48.180;11.478;2023-05-10T07:34:08;0.50;;;0.50;;
4676;SDS011;2352;48.180;11.478;2023-05-10T07:37:11;0.87;;;0.80;;
4676;SDS011;2352;48.180;11.478;2023-05-10T07:40:14;0.67;;;0.67;;
4676;SDS011;2352;48.180;11.478;2023-05-10T07:43:19;0.60;;;0.50;;
4676;SDS011;2352;48.180;11.478;2023-05-10T07:46:22;0.60;;;0.60;;
4676;SDS011;2352;48.180;11.478;2023-05-10T07:49:26;0.67;;;0.60;;
4676;SDS011;2352;48.180;11.478;2023-05-10T07:52:29;0.53;;;0.50;;
4676;SDS011;2352;48.180;11.478;2023-05-10T07:55:33;0.80;;;0.80;;
4676;SDS011;2352;48.180;11.478;2023-05-10T07:58:38;0.60;;;0.57;;
4676;SDS011;2352;48.180;11.478;2023-05-10T08:01:41;1.20;;;1.07;;
4676;SDS011;2352;48.180;11.478;2023-05-10T08:04:44;0.97;;;0.60;;
4676;SDS011;2352;48.180;11.478;2023-05-10T08:07:48;0.50;;;0.50;;
4676;SDS011;2352;48.180;11.478;2023-05-10T08:10:51;0.67;;;0.50;;
4676;SDS011;2352;48.180;11.478;2023-05-10T08:13:56;0.73;;;0.73;;
4676;SDS011;2352;48.180;11.478;2023-05-10T08:16:59;1.87;;;0.83;;
4676;SDS011;2352;48.180;11.478;2023-05-10T08:20:02;0.33;;;0.33;;
4676;SDS011;2352;48.180;11.478;2023-05-10T08:23:06;0.40;;;0.40;;
4676;SDS011;2352;48.180;11.478;2023-05-10T08:26:09;0.33;;;0.33;;
4676;SDS011;2352;48.180;11.478;2023-05-10T08:29:14;0.70;;;0.67;;
4676;SDS011;2352;48.180;11.478;2023-05-10T08:32:18;1.70;;;0.40;;
4676;SDS011;2352;48.180;11.478;2023-05-10T08:35:21;1.17;;;0.70;;
4676;SDS011;2352;48.180;11.478;2023-05-10T08:38:25;3.30;;;0.47;;
4676;SDS011;2352;48.180;11.478;2023-05-10T08:41:28;0.50;;;0.43;;
4676;SDS011;2352;48.180;11.478;2023-05-10T08:44:34;1.03;;;0.40;;
4676;SDS011;2352;48.180;11.478;2023-05-10T08:47:38;0.33;;;0.30;;
4676;SDS011;2352;48.180;11.478;2023-05-10T08:50:42;0.30;;;0.30;;
4676;SDS011;2352;48.180;11.478;2023-05-10T08:53:45;0.77;;;0.43;;
4676;SDS011;2352;48.180;11.478;2023-05-10T08:56:49;0.57;;;0.50;;
4676;SDS011;2352;48.180;11.478;2023-05-10T08:59:53;0.57;;;0.57;;
4676;SDS011;2352;48.180;11.478;2023-05-10T09:02:57;0.40;;;0.40;;
4676;SDS011;2352;48.180;11.478;2023-05-10T09:06:00;0.30;;;0.30;;
4676;SDS011;2352;48.180;11.478;2023-05-10T09:09:03;0.40;;;0.40;;
4676;SDS011;2352;48.180;11.478;2023-05-10T09:12:07;0.87;;;0.50;;
4676;SDS011;2352;48.180;11.478;2023-05-10T09:15:14;1.40;;;0.43;;
4676;SDS011;2352;48.180;11.478;2023-05-10T09:18:20;0.83;;;0.50;;
4676;SDS011;2352;48.180;11.478;2023-05-10T09:21:26;0.33;;;0.33;;
4676;SDS011;2352;48.180;11.478;2023-05-10T09:24:30;0.60;;;0.60;;
4676;SDS011;2352;48.180;11.478;2023-05-10T09:27:35;0.73;;;0.40;;
4676;SDS011;2352;48.180;11.478;2023-05-10T09:30:39;0.97;;;0.40;;
4676;SDS011;2352;48.180;11.478;2023-05-10T09:33:44;2.20;;;0.80;;
4676;SDS011;2352;48.180;11.478;2023-05-10T09:36:51;1.67;;;0.73;;
4676;SDS011;2352;48.180;11.478;2023-05-10T09:39:55;0.70;;;0.50;;
4676;SDS011;2352;48.180;11.478;2023-05-10T09:43:00;0.80;;;0.50;;
4676;SDS011;2352;48.180;11.478;2023-05-10T09:46:09;0.40;;;0.40;;
4676;SDS011;2352;48.180;11.478;2023-05-10T09:49:14;0.40;;;0.40;;
4676;SDS011;2352;48.180;11.478;2023-05-10T09:52:17;0.80;;;0.50;;
4676;SDS011;2352;48.180;11.478;2023-05-10T09:55:21;0.90;;;0.63;;
4676;SDS011;2352;48.180;11.478;2023-05-10T09:58:25;0.63;;;0.40;;
4676;SDS011;2352;48.180;11.478;2023-05-10T10:01:29;0.30;;;0.30;;
4676;SDS011;2352;48.180;11.478;2023-05-10T10:04:33;0.47;;;0.40;;
4676;SDS011;2352;48.180;11.478;2023-05-10T10:07:42;1.00;;;0.70;;
4676;SDS011;2352;48.180;11.478;2023-05-10T10:10:45;1.53;;;0.60;;
4676;SDS011;2352;48.180;11.478;2023-05-10T10:13:52;0.43;;;0.43;;
4676;SDS011;2352;48.180;11.478;2023-05-10T10:16:57;0.60;;;0.37;;
4676;SDS011;2352;48.180;11.478;2023-05-10T10:20:06;2.70;;;0.60;;
4676;SDS011;2352;48.180;11.478;2023-05-10T10:23:12;0.97;;;0.47;;
4676;SDS011;2352;48.180;11.478;2023-05-10T10:26:18;1.80;;;0.57;;
4676;SDS011;2352;48.180;11.478;2023-05-10T10:29:23;0.77;;;0.50;;
4676;SDS011;2352;48.180;11.478;2023-05-10T10:32:33;1.03;;;0.60;;
4676;SDS011;2352;48.180;11.478;2023-05-10T10:35:38;2.17;;;0.73;;
4676;SDS011;2352;48.180;11.478;2023-05-10T10:38:54;0.97;;;0.93;;
4676;SDS011;2352;48.180;11.478;2023-05-10T10:42:00;0.60;;;0.50;;
4676;SDS011;2352;48.180;11.478;2023-05-10T10:45:11;0.50;;;0.50;;
4676;SDS011;2352;48.180;11.478;2023-05-10T10:48:22;0.83;;;0.50;;
4676;SDS011;2352;48.180;11.478;2023-05-10T10:51:28;0.50;;;0.50;;
4676;SDS011;2352;48.180;11.478;2023-05-10T10:54:32;1.43;;;0.83;;
4676;SDS011;2352;48.180;11.478;2023-05-10T10:57:48;0.67;;;0.67;;
4676;SDS011;2352;48.180;11.478;2023-05-10T11:00:53;0.83;;;0.60;;
4676;SDS011;2352;48.180;11.478;2023-05-10T11:04:19;0.77;;;0.50;;
4676;SDS011;2352;48.180;11.478;2023-05-10T11:07:22;0.50;;;0.50;;
4676;SDS011;2352;48.180;11.478;2023-05-10T11:10:26;1.27;;;0.63;;
4676;SDS011;2352;48.180;11.478;2023-05-10T11:13:30;0.57;;;0.50;;
4676;SDS011;2352;48.180;11.478;2023-05-10T11:16:40;0.57;;;0.50;;
4676;SDS011;2352;48.180;11.478;2023-05-10T11:23:11;0.50;;;0.47;;
4676;SDS011;2352;48.180;11.478;2023-05-10T11:26:17;0.67;;;0.67;;
4676;SDS011;2352;48.180;11.478;2023-05-10T11:29:21;2.17;;;0.70;;
4676;SDS011;2352;48.180;11.478;2023-05-10T11:32:27;2.87;;;0.97;;
4676;SDS011;2352;48.180;11.478;2023-05-10T11:35:30;5.70;;;3.10;;
4676;SDS011;2352;48.180;11.478;2023-05-10T11:38:43;1.70;;;1.17;;
4676;SDS011;2352;48.180;11.478;2023-05-10T11:41:47;1.27;;;0.90;;
4676;SDS011;2352;48.180;11.478;2023-05-10T11:44:50;1.17;;;0.97;;
4676;SDS011;2352;48.180;11.478;2023-05-10T11:47:53;1.47;;;0.90;;
4676;SDS011;2352;48.180;11.478;2023-05-10T11:50:57;0.60;;;0.50;;
4676;SDS011;2352;48.180;11.478;2023-05-10T11:54:05;0.77;;;0.57;;
4676;SDS011;2352;48.180;11.478;2023-05-10T11:57:08;0.87;;;0.47;;
4676;SDS011;2352;48.180;11.478;2023-05-10T12:00:12;0.87;;;0.47;;
4676;SDS011;2352;48.180;11.478;2023-05-10T12:03:16;0.70;;;0.50;;
4676;SDS011;2352;48.180;11.478;2023-05-10T12:06:19;1.50;;;0.77;;
4676;SDS011;2352;48.180;11.478;2023-05-10T12:09:24;1.10;;;0.70;;
4676;SDS011;2352;48.180;11.478;2023-05-10T12:12:44;2.20;;;0.87;;
4676;SDS011;2352;48.180;11.478;2023-05-10T12:15:48;1.30;;;1.00;;
4676;SDS011;2352;48.180;11.478;2023-05-10T12:18:52;3.10;;;1.50;;
4676;SDS011;2352;48.180;11.478;2023-05-10T12:21:56;2.97;;;1.10;;
4676;SDS011;2352;48.180;11.478;2023-05-10T12:25:00;0.93;;;0.80;;
4676;SDS011;2352;48.180;11.478;2023-05-10T12:28:04;1.10;;;1.00;;
4676;SDS011;2352;48.180;11.478;2023-05-10T12:31:08;0.93;;;0.90;;
4676;SDS011;2352;48.180;11.478;2023-05-10T12:34:11;2.97;;;1.07;;
4676;SDS011;2352;48.180;11.478;2023-05-10T12:37:27;4.33;;;1.30;;
4676;SDS011;2352;48.180;11.478;2023-05-10T12:40:31;1.40;;;0.80;;
4676;SDS011;2352;48.180;11.478;2023-05-10T12:43:34;1.47;;;0.53;;
4676;SDS011;2352;48.180;11.478;2023-05-10T12:46:38;0.70;;;0.70;;
4676;SDS011;2352;48.180;11.478;2023-05-10T12:49:41;0.57;;;0.53;;
4676;SDS011;2352;48.180;11.478;2023-05-10T12:52:44;8.40;;;0.63;;
4676;SDS011;2352;48.180;11.478;2023-05-10T12:55:48;0.50;;;0.50;;
4676;SDS011;2352;48.180;11.478;2023-05-10T12:58:51;0.37;;;0.37;;
4676;SDS011;2352;48.180;11.478;2023-05-10T13:01:54;1.67;;;0.80;;
4676;SDS011;2352;48.180;11.478;2023-05-10T13:04:57;0.60;;;0.60;;
4676;SDS011;2352;48.180;11.478;2023-05-10T13:08:00;0.50;;;0.50;;
4676;SDS011;2352;48.180;11.478;2023-05-10T13:11:05;1.33;;;0.53;;
4676;SDS011;2352;48.180;11.478;2023-05-10T13:14:08;1.73;;;0.80;;
4676;SDS011;2352;48.180;11.478;2023-05-10T13:17:11;1.83;;;1.00;;
4676;SDS011;2352;48.180;11.478;2023-05-10T13:20:14;1.33;;;1.00;;
4676;SDS011;2352;48.180;11.478;2023-05-10T13:23:18;1.60;;;1.50;;
4676;SDS011;2352;48.180;11.478;2023-05-10T13:26:22;1.63;;;1.03;;
4676;SDS011;2352;48.180;11.478;2023-05-10T13:29:26;3.00;;;1.43;;
4676;SDS011;2352;48.180;11.478;2023-05-10T13:32:29;1.80;;;1.23;;
4676;SDS011;2352;48.180;11.478;2023-05-10T13:35:32;1.37;;;0.93;;
4676;SDS011;2352;48.180;11.478;2023-05-10T13:38:35;0.80;;;0.80;;
4676;SDS011;2352;48.180;11.478;2023-05-10T13:41:40;0.80;;;0.80;;
4676;SDS011;2352;48.180;11.478;2023-05-10T13:44:42;0.80;;;0.80;;
4676;SDS011;2352;48.180;11.478;2023-05-10T13:47:45;1.40;;;1.30;;
4676;SDS011;2352;48.180;11.478;2023-05-10T13:50:48;0.80;;;0.80;;
4676;SDS011;2352;48.180;11.478;2023-05-10T13:53:51;1.00;;;0.90;;
4676;SDS011;2352;48.180;11.478;2023-05-10T13:56:56;3.90;;;0.90;;
4676;SDS011;2352;48.180;11.478;2023-05-10T13:59:59;0.80;;;0.60;;
4676;SDS011;2352;48.180;11.478;2023-05-10T14:03:02;2.03;;;1.00;;
4676;SDS011;2352;48.180;11.478;2023-05-10T14:06:06;1.03;;;0.97;;
4676;SDS011;2352;48.180;11.478;2023-05-10T14:09:10;0.60;;;0.60;;
4676;SDS011;2352;48.180;11.478;2023-05-10T14:12:14;1.10;;;1.00;;
4676;SDS011;2352;48.180;11.478;2023-05-10T14:15:17;1.03;;;0.93;;
4676;SDS011;2352;48.180;11.478;2023-05-10T14:18:20;0.80;;;0.80;;
4676;SDS011;2352;48.180;11.478;2023-05-10T14:21:23;2.07;;;0.87;;
4676;SDS011;2352;48.180;11.478;2023-05-10T14:24:26;0.87;;;0.87;;
4676;SDS011;2352;48.180;11.478;2023-05-10T14:27:31;1.43;;;0.93;;
4676;SDS011;2352;48.180;11.478;2023-05-10T14:30:34;1.10;;;0.90;;
4676;SDS011;2352;48.180;11.478;2023-05-10T14:33:37;1.40;;;0.80;;
4676;SDS011;2352;48.180;11.478;2023-05-10T14:36:40;1.33;;;0.90;;
4676;SDS011;2352;48.180;11.478;2023-05-10T14:39:44;1.07;;;0.97;;
4676;SDS011;2352;48.180;11.478;2023-05-10T14:42:49;1.97;;;1.00;;
4676;SDS011;2352;48.180;11.478;2023-05-10T14:45:54;0.60;;;0.50;;
4676;SDS011;2352;48.180;11.478;2023-05-10T14:48:56;0.60;;;0.50;;
4676;SDS011;2352;48.180;11.478;2023-05-10T14:51:59;0.80;;;0.80;;
4676;SDS011;2352;48.180;11.478;2023-05-10T14:55:02;0.53;;;0.53;;
4676;SDS011;2352;48.180;11.478;2023-05-10T14:58:07;1.27;;;0.70;;
4676;SDS011;2352;48.180;11.478;2023-05-10T15:01:10;1.43;;;1.13;;
4676;SDS011;2352;48.180;11.478;2023-05-10T15:04:14;0.50;;;0.50;;
4676;SDS011;2352;48.180;11.478;2023-05-10T15:07:18;0.70;;;0.70;;
4676;SDS011;2352;48.180;11.478;2023-05-10T15:10:21;0.70;;;0.60;;
4676;SDS011;2352;48.180;11.478;2023-05-10T15:13:26;1.20;;;0.80;;
4676;SDS011;2352;48.180;11.478;2023-05-10T15:16:29;0.70;;;0.70;;
4676;SDS011;2352;48.180;11.478;2023-05-10T15:19:36;0.80;;;0.63;;
4676;SDS011;2352;48.180;11.478;2023-05-10T15:22:39;1.17;;;1.07;;
4676;SDS011;2352;48.180;11.478;2023-05-10T15:25:43;0.90;;;0.90;;
4676;SDS011;2352;48.180;11.478;2023-05-10T15:28:47;0.73;;;0.50;;
4676;SDS011;2352;48.180;11.478;2023-05-10T15:31:50;1.53;;;0.83;;
4676;SDS011;2352;48.180;11.478;2023-05-10T15:34:54;5.57;;;1.00;;
4676;SDS011;2352;48.180;11.478;2023-05-10T15:37:57;0.90;;;0.90;;
4676;SDS011;2352;48.180;11.478;2023-05-10T15:41:00;0.90;;;0.90;;
4676;SDS011;2352;48.180;11.478;2023-05-10T15:44:04;1.27;;;0.97;;
4676;SDS011;2352;48.180;11.478;2023-05-10T15:47:07;1.07;;;0.97;;
4676;SDS011;2352;48.180;11.478;2023-05-10T15:50:10;2.37;;;0.50;;
4676;SDS011;2352;48.180;11.478;2023-05-10T15:53:13;1.90;;;0.83;;
4676;SDS011;2352;48.180;11.478;2023-05-10T15:56:16;1.47;;;0.80;;
4676;SDS011;2352;48.180;11.478;2023-05-10T15:59:20;0.70;;;0.70;;
4676;SDS011;2352;48.180;11.478;2023-05-10T16:02:23;0.77;;;0.77;;
4676;SDS011;2352;48.180;11.478;2023-05-10T16:05:26;3.27;;;0.80;;
4676;SDS011;2352;48.180;11.478;2023-05-10T16:08:32;2.33;;;0.80;;
4676;SDS011;2352;48.180;11.478;2023-05-10T16:11:35;0.50;;;0.50;;
4676;SDS011;2352;48.180;11.478;2023-05-10T16:14:40;0.50;;;0.50;;
4676;SDS011;2352;48.180;11.478;2023-05-10T16:17:43;0.93;;;0.60;;
4676;SDS011;2352;48.180;11.478;2023-05-10T16:20:47;0.63;;;0.57;;
4676;SDS011;2352;48.180;11.478;2023-05-10T16:23:50;0.87;;;0.80;;
4676;SDS011;2352;48.180;11.478;2023-05-10T16:26:52;0.80;;;0.80;;
4676;SDS011;2352;48.180;11.478;2023-05-10T16:29:57;2.47;;;0.97;;
4676;SDS011;2352;48.180;11.478;2023-05-10T16:33:00;0.70;;;0.70;;
4676;SDS011;2352;48.180;11.478;2023-05-10T16:36:03;0.83;;;0.83;;
4676;SDS011;2352;48.180;11.478;2023-05-10T16:39:06;0.80;;;0.80;;
4676;SDS011;2352;48.180;11.478;2023-05-10T16:42:10;1.00;;;0.90;;
4676;SDS011;2352;48.180;11.478;2023-05-10T16:45:14;0.73;;;0.67;;
4676;SDS011;2352;48.180;11.478;2023-05-10T16:48:18;1.00;;;0.70;;
4676;SDS011;2352;48.180;11.478;2023-05-10T16:51:21;0.70;;;0.70;;
4676;SDS011;2352;48.180;11.478;2023-05-10T16:54:23;2.80;;;0.70;;
4676;SDS011;2352;48.180;11.478;2023-05-10T16:57:27;1.23;;;1.13;;
4676;SDS011;2352;48.180;11.478;2023-05-10T17:00:31;0.90;;;0.70;;
4676;SDS011;2352;48.180;11.478;2023-05-10T17:03:34;2.87;;;1.00;;
4676;SDS011;2352;48.180;11.478;2023-05-10T17:06:37;5.50;;;0.90;;
4676;SDS011;2352;48.180;11.478;2023-05-10T17:09:40;0.97;;;0.70;;
4676;SDS011;2352;48.180;11.478;2023-05-10T17:12:44;0.83;;;0.83;;
4676;SDS011;2352;48.180;11.478;2023-05-10T17:15:48;1.53;;;0.70;;
4676;SDS011;2352;48.180;11.478;2023-05-10T17:18:51;1.13;;;0.80;;
4676;SDS011;2352;48.180;11.478;2023-05-10T17:21:54;1.13;;;0.97;;
4676;SDS011;2352;48.180;11.478;2023-05-10T17:24:57;1.50;;;0.80;;
4676;SDS011;2352;48.180;11.478;2023-05-10T17:28:00;1.17;;;1.00;;
4676;SDS011;2352;48.180;11.478;2023-05-10T17:31:04;1.10;;;0.87;;
4676;SDS011;2352;48.180;11.478;2023-05-10T17:34:07;2.73;;;0.80;;
4676;SDS011;2352;48.180;11.478;2023-05-10T17:37:11;0.93;;;0.57;;
4676;SDS011;2352;48.180;11.478;2023-05-10T17:40:14;0.97;;;0.83;;
4676;SDS011;2352;48.180;11.478;2023-05-10T17:43:17;2.10;;;1.13;;
4676;SDS011;2352;48.180;11.478;2023-05-10T17:46:21;0.60;;;0.60;;
4676;SDS011;2352;48.180;11.478;2023-05-10T17:49:24;1.13;;;1.00;;
4676;SDS011;2352;48.180;11.478;2023-05-10T17:52:28;1.07;;;0.90;;
4676;SDS011;2352;48.180;11.478;2023-05-10T17:55:33;0.87;;;0.87;;
4676;SDS011;2352;48.180;11.478;2023-05-10T17:58:36;5.63;;;1.30;;
4676;SDS011;2352;48.180;11.478;2023-05-10T18:01:41;1.03;;;0.90;;
4676;SDS011;2352;48.180;11.478;2023-05-10T18:04:44;0.87;;;0.87;;
4676;SDS011;2352;48.180;11.478;2023-05-10T18:07:49;1.30;;;1.00;;
4676;SDS011;2352;48.180;11.478;2023-05-10T18:10:52;1.97;;;1.10;;
4676;SDS011;2352;48.180;11.478;2023-05-10T18:13:55;3.07;;;1.30;;
4676;SDS011;2352;48.180;11.478;2023-05-10T18:16:59;1.13;;;1.03;;
4676;SDS011;2352;48.180;11.478;2023-05-10T18:20:02;2.03;;;1.10;;
4676;SDS011;2352;48.180;11.478;2023-05-10T18:23:06;1.40;;;1.30;;
4676;SDS011;2352;48.180;11.478;2023-05-10T18:26:09;1.00;;;0.90;;
4676;SDS011;2352;48.180;11.478;2023-05-10T18:29:13;1.70;;;1.03;;
4676;SDS011;2352;48.180;11.478;2023-05-10T18:32:18;1.43;;;0.90;;
4676;SDS011;2352;48.180;11.478;2023-05-10T18:35:21;0.60;;;0.60;;
4676;SDS011;2352;48.180;11.478;2023-05-10T18:38:24;2.93;;;1.07;;
4676;SDS011;2352;48.180;11.478;2023-05-10T18:41:27;1.07;;;1.07;;
4676;SDS011;2352;48.180;11.478;2023-05-10T18:44:30;1.13;;;0.90;;
4676;SDS011;2352;48.180;11.478;2023-05-10T18:47:34;1.10;;;1.00;;
4676;SDS011;2352;48.180;11.478;2023-05-10T18:50:37;1.20;;;1.10;;